sensor_id;sensor_type;location;lat;lon;timestamp;P1;durP1;ratioP1;P2;durP2;ratioP2
40971;SDS011;26701;47.408;19.174;2023-04-08T00:01:23;37.38;;;17.02;;
40971;SDS011;26701;47.408;19.174;2023-04-08T00:03:50;35.30;;;14.98;;
40971;SDS011;26701;47.408;19.174;2023-04-08T00:06:16;37.40;;;16.85;;
40971;SDS011;26701;47.408;19.174;2023-04-08T00:08:42;39.67;;;18.65;;
40971;SDS011;26701;47.408;19.174;2023-04-08T00:11:08;34.28;;;15.88;;
40971;SDS011;26701;47.408;19.174;2023-04-08T00:13:34;38.25;;;17.02;;
40971;SDS011;26701;47.408;19.174;2023-04-08T00:16:00;37.63;;;17.42;;
40971;SDS011;26701;47.408;19.174;2023-04-08T00:18:27;37.50;;;17.80;;
40971;SDS011;26701;47.408;19.174;2023-04-08T00:20:53;36.97;;;17.45;;
40971;SDS011;26701;47.408;19.174;2023-04-08T00:23:21;37.03;;;16.90;;
40971;SDS011;26701;47.408;19.174;2023-04-08T00:25:47;42.33;;;16.40;;
40971;SDS011;26701;47.408;19.174;2023-04-08T00:28:13;37.47;;;17.10;;
40971;SDS011;26701;47.408;19.174;2023-04-08T00:30:40;39.03;;;18.08;;
40971;SDS011;26701;47.408;19.174;2023-04-08T00:33:06;38.92;;;16.48;;
40971;SDS011;26701;47.408;19.174;2023-04-08T00:35:32;39.63;;;17.95;;
40971;SDS011;26701;47.408;19.174;2023-04-08T00:37:59;36.53;;;16.98;;
40971;SDS011;26701;47.408;19.174;2023-04-08T00:40:25;39.15;;;17.30;;
40971;SDS011;26701;47.408;19.174;2023-04-08T00:42:52;38.90;;;18.05;;
40971;SDS011;26701;47.408;19.174;2023-04-08T00:45:18;36.20;;;16.98;;
40971;SDS011;26701;47.408;19.174;2023-04-08T00:47:44;38.97;;;18.67;;
40971;SDS011;26701;47.408;19.174;2023-04-08T00:50:11;36.38;;;17.27;;
40971;SDS011;26701;47.408;19.174;2023-04-08T00:52:37;31.27;;;15.63;;
40971;SDS011;26701;47.408;19.174;2023-04-08T00:55:03;34.25;;;17.35;;
40971;SDS011;26701;47.408;19.174;2023-04-08T00:57:30;34.90;;;18.05;;
40971;SDS011;26701;47.408;19.174;2023-04-08T00:59:56;37.80;;;18.13;;
40971;SDS011;26701;47.408;19.174;2023-04-08T01:05:02;37.85;;;17.90;;
40971;SDS011;26701;47.408;19.174;2023-04-08T01:07:51;34.80;;;16.80;;
40971;SDS011;26701;47.408;19.174;2023-04-08T01:12:47;32.55;;;15.40;;
40971;SDS011;26701;47.408;19.174;2023-04-08T01:15:19;39.72;;;17.17;;
40971;SDS011;26701;47.408;19.174;2023-04-08T01:17:45;37.78;;;16.90;;
40971;SDS011;26701;47.408;19.174;2023-04-08T01:20:12;35.65;;;17.00;;
40971;SDS011;26701;47.408;19.174;2023-04-08T01:25:16;40.13;;;17.05;;
40971;SDS011;26701;47.408;19.174;2023-04-08T01:27:45;36.22;;;17.70;;
40971;SDS011;26701;47.408;19.174;2023-04-08T01:30:13;36.45;;;16.70;;
40971;SDS011;26701;47.408;19.174;2023-04-08T01:32:42;36.33;;;17.67;;
40971;SDS011;26701;47.408;19.174;2023-04-08T01:35:09;35.10;;;16.23;;
40971;SDS011;26701;47.408;19.174;2023-04-08T01:37:35;37.28;;;18.13;;
40971;SDS011;26701;47.408;19.174;2023-04-08T01:40:02;36.08;;;18.40;;
40971;SDS011;26701;47.408;19.174;2023-04-08T01:42:30;33.40;;;16.63;;
40971;SDS011;26701;47.408;19.174;2023-04-08T01:44:58;36.20;;;16.75;;
40971;SDS011;26701;47.408;19.174;2023-04-08T01:47:24;34.85;;;17.20;;
40971;SDS011;26701;47.408;19.174;2023-04-08T01:49:51;35.10;;;16.95;;
40971;SDS011;26701;47.408;19.174;2023-04-08T01:52:19;33.40;;;15.05;;
40971;SDS011;26701;47.408;19.174;2023-04-08T01:54:46;34.58;;;17.65;;
40971;SDS011;26701;47.408;19.174;2023-04-08T01:57:16;35.28;;;17.00;;
40971;SDS011;26701;47.408;19.174;2023-04-08T01:59:49;40.25;;;17.52;;
40971;SDS011;26701;47.408;19.174;2023-04-08T02:04:43;34.80;;;16.30;;
40971;SDS011;26701;47.408;19.174;2023-04-08T02:07:09;41.05;;;16.90;;
40971;SDS011;26701;47.408;19.174;2023-04-08T02:09:36;36.17;;;16.42;;
40971;SDS011;26701;47.408;19.174;2023-04-08T02:12:02;36.63;;;16.77;;
40971;SDS011;26701;47.408;19.174;2023-04-08T02:14:28;33.38;;;15.68;;
40971;SDS011;26701;47.408;19.174;2023-04-08T02:16:58;39.63;;;17.92;;
40971;SDS011;26701;47.408;19.174;2023-04-08T02:19:35;45.47;;;19.77;;
40971;SDS011;26701;47.408;19.174;2023-04-08T02:22:18;35.05;;;17.27;;
40971;SDS011;26701;47.408;19.174;2023-04-08T02:24:50;41.22;;;18.17;;
40971;SDS011;26701;47.408;19.174;2023-04-08T02:27:18;34.28;;;15.68;;
40971;SDS011;26701;47.408;19.174;2023-04-08T02:29:45;34.17;;;15.95;;
40971;SDS011;26701;47.408;19.174;2023-04-08T02:32:13;35.67;;;16.08;;
40971;SDS011;26701;47.408;19.174;2023-04-08T02:34:40;35.90;;;17.35;;
40971;SDS011;26701;47.408;19.174;2023-04-08T02:37:07;42.10;;;17.88;;
40971;SDS011;26701;47.408;19.174;2023-04-08T02:39:34;40.45;;;18.15;;
40971;SDS011;26701;47.408;19.174;2023-04-08T02:42:00;38.58;;;16.35;;
40971;SDS011;26701;47.408;19.174;2023-04-08T02:44:26;35.22;;;17.02;;
40971;SDS011;26701;47.408;19.174;2023-04-08T02:46:52;40.72;;;17.10;;
40971;SDS011;26701;47.408;19.174;2023-04-08T02:49:19;42.13;;;18.55;;
40971;SDS011;26701;47.408;19.174;2023-04-08T02:51:45;41.33;;;18.50;;
40971;SDS011;26701;47.408;19.174;2023-04-08T02:54:11;34.83;;;17.58;;
40971;SDS011;26701;47.408;19.174;2023-04-08T02:56:37;38.50;;;18.02;;
40971;SDS011;26701;47.408;19.174;2023-04-08T02:59:03;42.63;;;17.77;;
40971;SDS011;26701;47.408;19.174;2023-04-08T03:01:30;42.65;;;17.08;;
40971;SDS011;26701;47.408;19.174;2023-04-08T03:03:56;33.67;;;16.80;;
40971;SDS011;26701;47.408;19.174;2023-04-08T03:06:22;37.75;;;15.90;;
40971;SDS011;26701;47.408;19.174;2023-04-08T03:08:48;41.80;;;18.50;;
40971;SDS011;26701;47.408;19.174;2023-04-08T03:11:14;42.17;;;19.20;;
40971;SDS011;26701;47.408;19.174;2023-04-08T03:13:40;34.13;;;16.25;;
40971;SDS011;26701;47.408;19.174;2023-04-08T03:16:07;38.45;;;17.13;;
40971;SDS011;26701;47.408;19.174;2023-04-08T03:18:33;46.10;;;18.35;;
40971;SDS011;26701;47.408;19.174;2023-04-08T03:20:59;33.22;;;15.45;;
40971;SDS011;26701;47.408;19.174;2023-04-08T03:23:27;34.08;;;16.98;;
40971;SDS011;26701;47.408;19.174;2023-04-08T03:25:53;40.97;;;18.27;;
40971;SDS011;26701;47.408;19.174;2023-04-08T03:28:19;34.05;;;16.60;;
40971;SDS011;26701;47.408;19.174;2023-04-08T03:30:45;37.58;;;16.77;;
40971;SDS011;26701;47.408;19.174;2023-04-08T03:33:11;36.22;;;16.52;;
40971;SDS011;26701;47.408;19.174;2023-04-08T03:35:38;42.85;;;16.90;;
40971;SDS011;26701;47.408;19.174;2023-04-08T03:38:04;40.10;;;17.23;;
40971;SDS011;26701;47.408;19.174;2023-04-08T03:40:30;38.03;;;17.27;;
40971;SDS011;26701;47.408;19.174;2023-04-08T03:42:56;34.38;;;16.27;;
40971;SDS011;26701;47.408;19.174;2023-04-08T03:45:22;39.58;;;17.35;;
40971;SDS011;26701;47.408;19.174;2023-04-08T03:47:49;34.72;;;15.82;;
40971;SDS011;26701;47.408;19.174;2023-04-08T03:50:15;30.55;;;15.32;;
40971;SDS011;26701;47.408;19.174;2023-04-08T03:52:41;36.28;;;16.55;;
40971;SDS011;26701;47.408;19.174;2023-04-08T03:55:07;39.03;;;17.92;;
40971;SDS011;26701;47.408;19.174;2023-04-08T03:57:33;35.72;;;16.60;;
40971;SDS011;26701;47.408;19.174;2023-04-08T04:00:00;31.75;;;15.18;;
40971;SDS011;26701;47.408;19.174;2023-04-08T04:02:26;33.58;;;15.57;;
40971;SDS011;26701;47.408;19.174;2023-04-08T04:04:52;40.17;;;15.57;;
40971;SDS011;26701;47.408;19.174;2023-04-08T04:07:18;38.13;;;15.95;;
40971;SDS011;26701;47.408;19.174;2023-04-08T04:09:44;35.38;;;17.13;;
40971;SDS011;26701;47.408;19.174;2023-04-08T04:12:10;34.35;;;16.58;;
40971;SDS011;26701;47.408;19.174;2023-04-08T04:14:36;38.65;;;15.93;;
40971;SDS011;26701;47.408;19.174;2023-04-08T04:17:02;36.53;;;16.95;;
40971;SDS011;26701;47.408;19.174;2023-04-08T04:19:29;36.25;;;15.60;;
40971;SDS011;26701;47.408;19.174;2023-04-08T04:21:56;32.97;;;15.30;;
40971;SDS011;26701;47.408;19.174;2023-04-08T04:24:22;33.60;;;15.23;;
40971;SDS011;26701;47.408;19.174;2023-04-08T04:26:48;35.25;;;15.18;;
40971;SDS011;26701;47.408;19.174;2023-04-08T04:29:14;37.53;;;14.98;;
40971;SDS011;26701;47.408;19.174;2023-04-08T04:31:40;34.25;;;15.05;;
40971;SDS011;26701;47.408;19.174;2023-04-08T04:34:06;34.67;;;15.27;;
40971;SDS011;26701;47.408;19.174;2023-04-08T04:36:32;29.05;;;14.18;;
40971;SDS011;26701;47.408;19.174;2023-04-08T04:38:59;33.05;;;14.00;;
40971;SDS011;26701;47.408;19.174;2023-04-08T04:41:25;30.90;;;13.55;;
40971;SDS011;26701;47.408;19.174;2023-04-08T04:43:51;28.75;;;12.40;;
40971;SDS011;26701;47.408;19.174;2023-04-08T04:46:17;30.10;;;13.10;;
40971;SDS011;26701;47.408;19.174;2023-04-08T04:48:43;25.88;;;12.25;;
40971;SDS011;26701;47.408;19.174;2023-04-08T04:51:10;25.85;;;12.57;;
40971;SDS011;26701;47.408;19.174;2023-04-08T04:53:36;27.52;;;13.32;;
40971;SDS011;26701;47.408;19.174;2023-04-08T04:56:02;25.42;;;11.90;;
40971;SDS011;26701;47.408;19.174;2023-04-08T04:58:28;28.30;;;13.10;;
40971;SDS011;26701;47.408;19.174;2023-04-08T05:00:55;27.00;;;12.80;;
40971;SDS011;26701;47.408;19.174;2023-04-08T05:03:21;23.98;;;11.60;;
40971;SDS011;26701;47.408;19.174;2023-04-08T05:05:53;26.05;;;12.30;;
40971;SDS011;26701;47.408;19.174;2023-04-08T05:08:19;30.08;;;12.52;;
40971;SDS011;26701;47.408;19.174;2023-04-08T05:10:46;28.95;;;12.18;;
40971;SDS011;26701;47.408;19.174;2023-04-08T05:13:14;25.00;;;12.60;;
40971;SDS011;26701;47.408;19.174;2023-04-08T05:15:40;26.15;;;13.25;;
40971;SDS011;26701;47.408;19.174;2023-04-08T05:18:06;25.67;;;11.27;;
40971;SDS011;26701;47.408;19.174;2023-04-08T05:20:32;25.50;;;12.88;;
40971;SDS011;26701;47.408;19.174;2023-04-08T05:22:58;27.08;;;12.23;;
40971;SDS011;26701;47.408;19.174;2023-04-08T05:25:24;25.63;;;10.10;;
40971;SDS011;26701;47.408;19.174;2023-04-08T05:27:51;26.45;;;11.95;;
40971;SDS011;26701;47.408;19.174;2023-04-08T05:30:17;25.80;;;11.05;;
40971;SDS011;26701;47.408;19.174;2023-04-08T05:32:43;21.13;;;10.30;;
40971;SDS011;26701;47.408;19.174;2023-04-08T05:35:09;24.58;;;11.85;;
40971;SDS011;26701;47.408;19.174;2023-04-08T05:37:35;22.55;;;10.90;;
40971;SDS011;26701;47.408;19.174;2023-04-08T05:40:02;24.77;;;11.75;;
40971;SDS011;26701;47.408;19.174;2023-04-08T05:42:28;26.27;;;12.60;;
40971;SDS011;26701;47.408;19.174;2023-04-08T05:44:54;19.42;;;10.27;;
40971;SDS011;26701;47.408;19.174;2023-04-08T05:47:20;23.80;;;11.48;;
40971;SDS011;26701;47.408;19.174;2023-04-08T05:49:46;19.27;;;11.23;;
40971;SDS011;26701;47.408;19.174;2023-04-08T05:52:12;22.13;;;11.02;;
40971;SDS011;26701;47.408;19.174;2023-04-08T05:54:41;25.70;;;11.90;;
40971;SDS011;26701;47.408;19.174;2023-04-08T05:59:33;22.30;;;10.85;;
40971;SDS011;26701;47.408;19.174;2023-04-08T06:01:59;22.08;;;10.68;;
40971;SDS011;26701;47.408;19.174;2023-04-08T06:04:25;21.05;;;10.38;;
40971;SDS011;26701;47.408;19.174;2023-04-08T06:06:52;21.23;;;10.23;;
40971;SDS011;26701;47.408;19.174;2023-04-08T06:09:18;26.42;;;12.50;;
40971;SDS011;26701;47.408;19.174;2023-04-08T06:11:44;23.65;;;12.25;;
40971;SDS011;26701;47.408;19.174;2023-04-08T06:14:11;22.52;;;11.70;;
40971;SDS011;26701;47.408;19.174;2023-04-08T06:16:37;24.60;;;10.90;;
40971;SDS011;26701;47.408;19.174;2023-04-08T06:19:03;28.20;;;12.93;;
40971;SDS011;26701;47.408;19.174;2023-04-08T06:21:29;24.48;;;12.05;;
40971;SDS011;26701;47.408;19.174;2023-04-08T06:23:56;26.83;;;11.63;;
40971;SDS011;26701;47.408;19.174;2023-04-08T06:26:22;21.20;;;10.10;;
40971;SDS011;26701;47.408;19.174;2023-04-08T06:28:48;20.58;;;9.93;;
40971;SDS011;26701;47.408;19.174;2023-04-08T06:31:14;19.58;;;10.43;;
40971;SDS011;26701;47.408;19.174;2023-04-08T06:33:40;17.48;;;10.23;;
40971;SDS011;26701;47.408;19.174;2023-04-08T06:36:06;22.63;;;10.82;;
40971;SDS011;26701;47.408;19.174;2023-04-08T06:38:33;22.35;;;10.98;;
40971;SDS011;26701;47.408;19.174;2023-04-08T06:41:02;25.58;;;12.32;;
40971;SDS011;26701;47.408;19.174;2023-04-08T06:43:31;23.42;;;11.43;;
40971;SDS011;26701;47.408;19.174;2023-04-08T06:45:57;21.48;;;10.07;;
40971;SDS011;26701;47.408;19.174;2023-04-08T06:48:23;22.45;;;10.35;;
40971;SDS011;26701;47.408;19.174;2023-04-08T06:50:56;19.38;;;9.70;;
40971;SDS011;26701;47.408;19.174;2023-04-08T06:53:23;22.98;;;10.80;;
40971;SDS011;26701;47.408;19.174;2023-04-08T06:55:50;26.10;;;10.63;;
40971;SDS011;26701;47.408;19.174;2023-04-08T06:58:16;22.38;;;10.63;;
40971;SDS011;26701;47.408;19.174;2023-04-08T07:00:42;22.67;;;10.15;;
40971;SDS011;26701;47.408;19.174;2023-04-08T07:03:09;23.42;;;10.98;;
40971;SDS011;26701;47.408;19.174;2023-04-08T07:05:37;25.00;;;11.55;;
40971;SDS011;26701;47.408;19.174;2023-04-08T07:08:06;30.70;;;12.60;;
40971;SDS011;26701;47.408;19.174;2023-04-08T07:10:33;21.80;;;11.70;;
40971;SDS011;26701;47.408;19.174;2023-04-08T07:13:00;22.38;;;10.98;;
40971;SDS011;26701;47.408;19.174;2023-04-08T07:15:26;25.27;;;11.40;;
40971;SDS011;26701;47.408;19.174;2023-04-08T07:17:52;22.20;;;9.80;;
40971;SDS011;26701;47.408;19.174;2023-04-08T07:20:21;24.23;;;11.10;;
40971;SDS011;26701;47.408;19.174;2023-04-08T07:22:47;21.70;;;10.75;;
40971;SDS011;26701;47.408;19.174;2023-04-08T07:25:13;21.70;;;10.73;;
40971;SDS011;26701;47.408;19.174;2023-04-08T07:27:40;19.73;;;9.75;;
40971;SDS011;26701;47.408;19.174;2023-04-08T07:30:06;21.98;;;11.82;;
40971;SDS011;26701;47.408;19.174;2023-04-08T07:32:33;23.30;;;10.27;;
40971;SDS011;26701;47.408;19.174;2023-04-08T07:34:59;21.55;;;9.52;;
40971;SDS011;26701;47.408;19.174;2023-04-08T07:37:26;25.48;;;12.23;;
40971;SDS011;26701;47.408;19.174;2023-04-08T07:39:52;27.73;;;13.43;;
40971;SDS011;26701;47.408;19.174;2023-04-08T07:42:18;23.60;;;11.50;;
40971;SDS011;26701;47.408;19.174;2023-04-08T07:44:44;29.08;;;13.52;;
40971;SDS011;26701;47.408;19.174;2023-04-08T07:47:10;29.13;;;13.45;;
40971;SDS011;26701;47.408;19.174;2023-04-08T07:49:37;26.08;;;12.07;;
40971;SDS011;26701;47.408;19.174;2023-04-08T07:52:03;28.20;;;13.57;;
40971;SDS011;26701;47.408;19.174;2023-04-08T07:54:30;28.00;;;12.20;;
40971;SDS011;26701;47.408;19.174;2023-04-08T07:56:58;27.48;;;13.65;;
40971;SDS011;26701;47.408;19.174;2023-04-08T07:59:25;29.20;;;14.45;;
40971;SDS011;26701;47.408;19.174;2023-04-08T08:01:51;28.83;;;13.35;;
40971;SDS011;26701;47.408;19.174;2023-04-08T08:04:17;26.35;;;12.88;;
40971;SDS011;26701;47.408;19.174;2023-04-08T08:06:43;29.27;;;14.60;;
40971;SDS011;26701;47.408;19.174;2023-04-08T08:09:10;28.52;;;14.82;;
40971;SDS011;26701;47.408;19.174;2023-04-08T08:11:36;25.52;;;13.07;;
40971;SDS011;26701;47.408;19.174;2023-04-08T08:14:02;24.25;;;12.07;;
40971;SDS011;26701;47.408;19.174;2023-04-08T08:16:29;23.52;;;11.65;;
40971;SDS011;26701;47.408;19.174;2023-04-08T08:18:56;23.15;;;12.55;;
40971;SDS011;26701;47.408;19.174;2023-04-08T08:21:22;28.17;;;13.10;;
40971;SDS011;26701;47.408;19.174;2023-04-08T08:23:50;28.15;;;14.13;;
40971;SDS011;26701;47.408;19.174;2023-04-08T08:26:16;26.05;;;13.77;;
40971;SDS011;26701;47.408;19.174;2023-04-08T08:28:43;26.25;;;12.90;;
40971;SDS011;26701;47.408;19.174;2023-04-08T08:31:09;23.27;;;11.27;;
40971;SDS011;26701;47.408;19.174;2023-04-08T08:33:37;28.80;;;14.15;;
40971;SDS011;26701;47.408;19.174;2023-04-08T08:36:03;24.88;;;12.63;;
40971;SDS011;26701;47.408;19.174;2023-04-08T08:38:30;26.48;;;12.90;;
40971;SDS011;26701;47.408;19.174;2023-04-08T08:40:56;26.13;;;13.38;;
40971;SDS011;26701;47.408;19.174;2023-04-08T08:43:23;26.35;;;11.98;;
40971;SDS011;26701;47.408;19.174;2023-04-08T08:45:49;26.27;;;13.27;;
40971;SDS011;26701;47.408;19.174;2023-04-08T08:48:15;22.95;;;11.65;;
40971;SDS011;26701;47.408;19.174;2023-04-08T08:50:42;25.13;;;13.32;;
40971;SDS011;26701;47.408;19.174;2023-04-08T08:53:08;28.98;;;14.15;;
40971;SDS011;26701;47.408;19.174;2023-04-08T08:55:34;27.38;;;13.38;;
40971;SDS011;26701;47.408;19.174;2023-04-08T08:58:01;23.48;;;12.80;;
40971;SDS011;26701;47.408;19.174;2023-04-08T09:03:17;23.58;;;11.95;;
40971;SDS011;26701;47.408;19.174;2023-04-08T09:06:01;28.27;;;14.40;;
40971;SDS011;26701;47.408;19.174;2023-04-08T09:10:54;23.08;;;12.23;;
40971;SDS011;26701;47.408;19.174;2023-04-08T09:13:21;22.33;;;12.45;;
40971;SDS011;26701;47.408;19.174;2023-04-08T09:16:00;28.92;;;13.90;;
40971;SDS011;26701;47.408;19.174;2023-04-08T09:18:28;29.20;;;13.93;;
40971;SDS011;26701;47.408;19.174;2023-04-08T09:20:54;30.20;;;14.75;;
40971;SDS011;26701;47.408;19.174;2023-04-08T09:23:20;23.88;;;13.00;;
40971;SDS011;26701;47.408;19.174;2023-04-08T09:25:46;25.13;;;13.68;;
40971;SDS011;26701;47.408;19.174;2023-04-08T09:28:19;22.38;;;11.35;;
40971;SDS011;26701;47.408;19.174;2023-04-08T09:30:45;26.42;;;13.38;;
40971;SDS011;26701;47.408;19.174;2023-04-08T09:33:12;24.23;;;12.38;;
40971;SDS011;26701;47.408;19.174;2023-04-08T09:35:38;23.00;;;12.43;;
40971;SDS011;26701;47.408;19.174;2023-04-08T09:38:04;23.13;;;12.10;;
40971;SDS011;26701;47.408;19.174;2023-04-08T09:40:32;23.10;;;12.23;;
40971;SDS011;26701;47.408;19.174;2023-04-08T09:43:02;20.73;;;11.55;;
40971;SDS011;26701;47.408;19.174;2023-04-08T09:45:30;21.85;;;11.93;;
40971;SDS011;26701;47.408;19.174;2023-04-08T09:50:30;21.10;;;10.93;;
40971;SDS011;26701;47.408;19.174;2023-04-08T09:52:59;20.55;;;11.63;;
40971;SDS011;26701;47.408;19.174;2023-04-08T09:55:32;22.08;;;11.18;;
40971;SDS011;26701;47.408;19.174;2023-04-08T09:58:01;22.15;;;11.25;;
40971;SDS011;26701;47.408;19.174;2023-04-08T10:00:41;20.42;;;11.52;;
40971;SDS011;26701;47.408;19.174;2023-04-08T10:05:46;22.70;;;12.00;;
40971;SDS011;26701;47.408;19.174;2023-04-08T10:08:12;25.20;;;12.63;;
40971;SDS011;26701;47.408;19.174;2023-04-08T10:10:38;22.70;;;13.25;;
40971;SDS011;26701;47.408;19.174;2023-04-08T10:13:05;24.65;;;13.38;;
40971;SDS011;26701;47.408;19.174;2023-04-08T10:15:33;23.73;;;12.45;;
40971;SDS011;26701;47.408;19.174;2023-04-08T10:23:01;23.48;;;12.32;;
40971;SDS011;26701;47.408;19.174;2023-04-08T10:25:32;25.98;;;14.25;;
40971;SDS011;26701;47.408;19.174;2023-04-08T10:27:59;23.65;;;12.45;;
40971;SDS011;26701;47.408;19.174;2023-04-08T10:32:55;20.80;;;12.45;;
40971;SDS011;26701;47.408;19.174;2023-04-08T10:35:30;26.35;;;14.05;;
40971;SDS011;26701;47.408;19.174;2023-04-08T10:37:57;27.50;;;14.18;;
40971;SDS011;26701;47.408;19.174;2023-04-08T10:40:24;25.80;;;13.57;;
40971;SDS011;26701;47.408;19.174;2023-04-08T10:42:59;28.85;;;15.20;;
40971;SDS011;26701;47.408;19.174;2023-04-08T10:45:25;30.15;;;13.93;;
40971;SDS011;26701;47.408;19.174;2023-04-08T10:47:51;31.60;;;14.45;;
40971;SDS011;26701;47.408;19.174;2023-04-08T10:50:18;27.13;;;14.55;;
40971;SDS011;26701;47.408;19.174;2023-04-08T10:52:53;98.78;;;44.92;;
40971;SDS011;26701;47.408;19.174;2023-04-08T10:55:23;46.50;;;24.92;;
40971;SDS011;26701;47.408;19.174;2023-04-08T10:57:50;39.70;;;21.17;;
40971;SDS011;26701;47.408;19.174;2023-04-08T11:00:31;30.33;;;16.42;;
40971;SDS011;26701;47.408;19.174;2023-04-08T11:03:02;25.05;;;13.02;;
40971;SDS011;26701;47.408;19.174;2023-04-08T11:05:28;29.40;;;14.55;;
40971;SDS011;26701;47.408;19.174;2023-04-08T11:07:55;27.02;;;14.65;;
40971;SDS011;26701;47.408;19.174;2023-04-08T11:10:21;28.13;;;14.77;;
40971;SDS011;26701;47.408;19.174;2023-04-08T11:12:47;29.48;;;14.30;;
40971;SDS011;26701;47.408;19.174;2023-04-08T11:15:13;27.83;;;16.20;;
40971;SDS011;26701;47.408;19.174;2023-04-08T11:17:40;24.23;;;13.07;;
40971;SDS011;26701;47.408;19.174;2023-04-08T11:20:07;27.83;;;14.65;;
40971;SDS011;26701;47.408;19.174;2023-04-08T11:22:34;22.85;;;12.18;;
40971;SDS011;26701;47.408;19.174;2023-04-08T11:25:01;24.52;;;13.32;;
40971;SDS011;26701;47.408;19.174;2023-04-08T11:27:27;40.30;;;20.90;;
40971;SDS011;26701;47.408;19.174;2023-04-08T11:29:56;33.50;;;17.25;;
40971;SDS011;26701;47.408;19.174;2023-04-08T11:32:23;26.02;;;14.40;;
40971;SDS011;26701;47.408;19.174;2023-04-08T11:34:49;25.08;;;13.93;;
40971;SDS011;26701;47.408;19.174;2023-04-08T11:37:15;26.52;;;14.05;;
40971;SDS011;26701;47.408;19.174;2023-04-08T11:39:42;24.65;;;13.88;;
40971;SDS011;26701;47.408;19.174;2023-04-08T11:42:08;25.13;;;13.85;;
40971;SDS011;26701;47.408;19.174;2023-04-08T11:44:34;25.08;;;14.40;;
40971;SDS011;26701;47.408;19.174;2023-04-08T11:47:01;24.63;;;13.95;;
40971;SDS011;26701;47.408;19.174;2023-04-08T11:49:27;27.10;;;14.65;;
40971;SDS011;26701;47.408;19.174;2023-04-08T11:51:54;28.88;;;15.40;;
40971;SDS011;26701;47.408;19.174;2023-04-08T11:54:30;28.77;;;18.70;;
40971;SDS011;26701;47.408;19.174;2023-04-08T11:56:57;26.83;;;14.55;;
40971;SDS011;26701;47.408;19.174;2023-04-08T11:59:24;32.72;;;17.52;;
40971;SDS011;26701;47.408;19.174;2023-04-08T12:01:50;26.98;;;14.57;;
40971;SDS011;26701;47.408;19.174;2023-04-08T12:04:17;27.25;;;15.13;;
40971;SDS011;26701;47.408;19.174;2023-04-08T12:06:43;25.23;;;12.70;;
40971;SDS011;26701;47.408;19.174;2023-04-08T12:09:14;23.48;;;11.90;;
40971;SDS011;26701;47.408;19.174;2023-04-08T12:11:40;21.75;;;12.15;;
40971;SDS011;26701;47.408;19.174;2023-04-08T12:14:06;28.10;;;14.07;;
40971;SDS011;26701;47.408;19.174;2023-04-08T12:16:32;24.35;;;13.50;;
40971;SDS011;26701;47.408;19.174;2023-04-08T12:18:59;25.45;;;14.80;;
40971;SDS011;26701;47.408;19.174;2023-04-08T12:21:25;26.20;;;14.43;;
40971;SDS011;26701;47.408;19.174;2023-04-08T12:23:52;23.38;;;13.10;;
40971;SDS011;26701;47.408;19.174;2023-04-08T12:26:18;31.75;;;16.67;;
40971;SDS011;26701;47.408;19.174;2023-04-08T12:28:44;22.98;;;12.80;;
40971;SDS011;26701;47.408;19.174;2023-04-08T12:31:11;26.35;;;13.63;;
40971;SDS011;26701;47.408;19.174;2023-04-08T12:33:37;25.38;;;12.70;;
40971;SDS011;26701;47.408;19.174;2023-04-08T12:36:03;24.52;;;13.13;;
40971;SDS011;26701;47.408;19.174;2023-04-08T12:38:29;26.42;;;13.57;;
40971;SDS011;26701;47.408;19.174;2023-04-08T12:40:55;24.88;;;12.75;;
40971;SDS011;26701;47.408;19.174;2023-04-08T12:43:21;29.63;;;14.80;;
40971;SDS011;26701;47.408;19.174;2023-04-08T12:45:48;22.98;;;12.82;;
40971;SDS011;26701;47.408;19.174;2023-04-08T12:48:14;27.25;;;12.63;;
40971;SDS011;26701;47.408;19.174;2023-04-08T12:50:40;26.60;;;13.02;;
40971;SDS011;26701;47.408;19.174;2023-04-08T12:53:07;24.80;;;13.52;;
40971;SDS011;26701;47.408;19.174;2023-04-08T12:55:33;24.67;;;12.90;;
40971;SDS011;26701;47.408;19.174;2023-04-08T12:57:59;22.75;;;11.90;;
40971;SDS011;26701;47.408;19.174;2023-04-08T13:00:25;21.25;;;10.85;;
40971;SDS011;26701;47.408;19.174;2023-04-08T13:02:51;23.23;;;13.05;;
40971;SDS011;26701;47.408;19.174;2023-04-08T13:05:17;22.88;;;11.95;;
40971;SDS011;26701;47.408;19.174;2023-04-08T13:07:44;20.58;;;11.45;;
40971;SDS011;26701;47.408;19.174;2023-04-08T13:10:10;24.17;;;13.18;;
40971;SDS011;26701;47.408;19.174;2023-04-08T13:12:36;26.95;;;13.00;;
40971;SDS011;26701;47.408;19.174;2023-04-08T13:15:04;21.75;;;12.35;;
40971;SDS011;26701;47.408;19.174;2023-04-08T13:17:31;26.45;;;12.60;;
40971;SDS011;26701;47.408;19.174;2023-04-08T13:19:57;24.67;;;13.15;;
40971;SDS011;26701;47.408;19.174;2023-04-08T13:22:27;21.48;;;11.48;;
40971;SDS011;26701;47.408;19.174;2023-04-08T13:24:53;23.52;;;12.70;;
40971;SDS011;26701;47.408;19.174;2023-04-08T13:27:19;21.90;;;11.95;;
40971;SDS011;26701;47.408;19.174;2023-04-08T13:29:45;25.55;;;12.77;;
40971;SDS011;26701;47.408;19.174;2023-04-08T13:32:11;20.83;;;11.23;;
40971;SDS011;26701;47.408;19.174;2023-04-08T13:34:37;25.55;;;14.00;;
40971;SDS011;26701;47.408;19.174;2023-04-08T13:37:03;23.02;;;12.93;;
40971;SDS011;26701;47.408;19.174;2023-04-08T13:39:30;27.83;;;13.43;;
40971;SDS011;26701;47.408;19.174;2023-04-08T13:41:56;22.33;;;13.32;;
40971;SDS011;26701;47.408;19.174;2023-04-08T13:44:22;21.85;;;12.05;;
40971;SDS011;26701;47.408;19.174;2023-04-08T13:46:48;21.10;;;11.15;;
40971;SDS011;26701;47.408;19.174;2023-04-08T13:49:15;22.85;;;12.55;;
40971;SDS011;26701;47.408;19.174;2023-04-08T13:51:41;22.33;;;12.25;;
40971;SDS011;26701;47.408;19.174;2023-04-08T13:54:07;22.42;;;12.93;;
40971;SDS011;26701;47.408;19.174;2023-04-08T13:56:33;25.33;;;14.35;;
40971;SDS011;26701;47.408;19.174;2023-04-08T13:58:59;24.30;;;13.68;;
40971;SDS011;26701;47.408;19.174;2023-04-08T14:01:25;26.08;;;15.85;;
40971;SDS011;26701;47.408;19.174;2023-04-08T14:03:52;23.52;;;13.07;;
40971;SDS011;26701;47.408;19.174;2023-04-08T14:06:18;24.15;;;13.43;;
40971;SDS011;26701;47.408;19.174;2023-04-08T14:08:44;23.33;;;12.48;;
40971;SDS011;26701;47.408;19.174;2023-04-08T14:11:10;26.40;;;12.23;;
40971;SDS011;26701;47.408;19.174;2023-04-08T14:13:36;24.05;;;12.70;;
40971;SDS011;26701;47.408;19.174;2023-04-08T14:16:02;23.25;;;12.27;;
40971;SDS011;26701;47.408;19.174;2023-04-08T14:18:29;23.58;;;13.43;;
40971;SDS011;26701;47.408;19.174;2023-04-08T14:20:55;21.65;;;11.65;;
40971;SDS011;26701;47.408;19.174;2023-04-08T14:23:21;21.05;;;11.52;;
40971;SDS011;26701;47.408;19.174;2023-04-08T14:25:47;20.60;;;11.00;;
40971;SDS011;26701;47.408;19.174;2023-04-08T14:28:13;23.67;;;11.60;;
40971;SDS011;26701;47.408;19.174;2023-04-08T14:30:39;24.30;;;11.77;;
40971;SDS011;26701;47.408;19.174;2023-04-08T14:33:06;20.27;;;10.93;;
40971;SDS011;26701;47.408;19.174;2023-04-08T14:35:32;26.80;;;12.23;;
40971;SDS011;26701;47.408;19.174;2023-04-08T14:37:59;26.70;;;13.43;;